Terminal Aerodrome Forecast
Issued by NWS

Home | Current Version | Previous Version | Text Only | Print | Product List | Glossary On
Versions: 1 2 3 4 5 6 7 8 9 10 11 12 13 14 15 16 17 18
000
FTUS44 KJAN 190701 AAA
TAFGTR
TAF AMD
KGTR 190701Z 1907/2006 10006KT 3SM -RA BR OVC006
     FM191000 16004KT 4SM BR OVC007
     FM191500 23007KT P6SM BKN015
     FM192100 24009KT P6SM SCT040 BKN200
     FM200400 17011KT P6SM VCTS BKN040CB OVC100=

USA.gov is the U.S. government's official web portal to all federal, state and local government web resources and services.